McCall, ID

5:18 PM MDT on April 24, 2017 (GMT -0600)
Spring Mountain Ranch | | Change Station

Elev 5097 ft 44.91 °N, 116.08 °W | Updated 1 minute ago

Overcast
Overcast
42.5 °F
Feels Like 42 °F
N
0.0
Wind Variable Wind from West

Today
High -- | Low -- °F
--% Chance of Precip.
Yesterday
High -- | Low -- °F
Precip. -- in
Pressure 29.66 in
Visibility 10.0 miles
Clouds Few 2200 ft
Scattered Clouds 2900 ft
Overcast 4100 ft
Windchill 42 °F
Dew Point 38 °F
Humidity 85%
Rainfall 0.32 in
Snow Depth Not available.
6:44 AM 8:41 PM
Waning Crescent, 3% visible
METAR KMYL 242251Z AUTO 15006KT 10SM FEW022 SCT029 OVC041 06/01 A2965 RMK AO2 SLP044 T00560011
Pressure 29.66 in
Visibility 10.0 miles
Clouds Few 2200 ft
Scattered Clouds 2900 ft
Overcast 4100 ft
Windchill 42 °F
Dew Point 38 °F
Humidity 85%
Rainfall 0.32 in
Snow Depth Not available.
6:44 AM 8:41 PM
Waning Crescent, 3% visible
METAR KMYL 242251Z AUTO 15006KT 10SM FEW022 SCT029 OVC041 06/01 A2965 RMK AO2 SLP044 T00560011

Get Severe Weather Alerts

Thanks for signing up!

Be on the lookout for a verification email in your inbox.

You'll start receiving the daily forecast at 8 AM.

×

10-Day Weather Forecast

Almanac

Astronomy

Apr. 24, 2017 Rise Set
Actual Time
Civil Twilight
Nautical Twilight
Astronomical Twilight
Moon
Length of Visible Light
Length of Day
Tomorrow will be .
, % of the Moon is Illuminated

Today's Extremes

State Highs State Lows

Community

WunderPhotos

WunderBlog® & News

Nearby

Air Quality

  Air Quality AQ Index Pollutant
Not available.

Snow Depth

Station Depth Elevation

Earthquake Activity

City Distance Mag. Time & Date
Minimum magnitude displayed is 2.5.

Coastal Water Temperatures

Place Temperature

Stations

Nearby Weather Stations

Station Location Temp. Windchill Dew Point Humidity Wind Precip. Elev Updated Type
                   

Watches & Warnings

There are currently no watches in effect.